Battle Point — NMBY — position and weather

sailwx.info

Track history (hours):
 
Tides and Currents Weather Stations Pressure Air Temp Water Temp Dewpoint Dewpoint Depression Visibility Wind Speed Wind Dir Waves Ship Positions

Battle Point

Last reported at 2017-Jun-07 19:11 UTC. Time now 2017-Jun-23 12:10 UTC.
Position N 49°16' W 124°09'.
Warning: this ship's position is 15 days out of date.

Length 57 m; draft 3.2 m.

MMSI: 369970254.

Date/timePositionNaut miles runAvg speedWind from/ knotsBaromVisibWave heightAir tempDewpointWater temp
2017-Jun-07 19:11N 49°16' W 124°09'0 2.0
2017-Jun-07 18:59N 49°16' W 124°08'710.3
2017-Jun-07 18:19N 49°17' W 123°58'2 1.3
2017-Jun-07 16:55N 49°19' W 123°59'0 0.9
2017-Jun-07 16:27N 49°19' W 123°59'4 0.1
2017-Jun-06 03:32N 49°16' W 124°03'110.1
2017-Jun-06 03:29N 49°16' W 124°02'510.1
2017-Jun-06 03:00N 49°15' W 123°55'12 9.7
2017-Jun-06 01:47N 49°11' W 123°38'311.2
2017-Jun-06 01:30N 49°09' W 123°33'610.9
2017-Jun-06 01:00N 49°07' W 123°26'510.1
2017-Jun-06 00:29N 49°04' W 123°20'510.0
2017-Jun-06 00:00N 49°01' W 123°14'5 9.7
2017-Jun-05 23:30N 48°57' W 123°08'5 9.9
2017-Jun-05 23:00N 48°54' W 123°03'510.4
2017-Jun-05 22:29N 48°51' W 122°57'510.7
2017-Jun-05 22:00N 48°47' W 122°51'510.6
2017-Jun-05 21:30N 48°44' W 122°45'611.1
2017-Jun-05 21:00N 48°38' W 122°44'612.4
2017-Jun-05 20:30N 48°32' W 122°45'611.8
2017-Jun-05 20:00N 48°26' W 122°44'510.7
2017-Jun-05 19:30N 48°21' W 122°45'510.4
2017-Jun-05 19:00N 48°16' W 122°47'4 8.3
2017-Jun-05 18:30N 48°12' W 122°47'6 9.6
2017-Jun-05 17:52N 48°08' W 122°40'610.2
2017-Jun-05 17:14N 48°01' W 122°38'410.3
2017-Jun-05 16:53N 47°58' W 122°38'410.5
2017-Jun-05 16:30N 47°54' W 122°36'3 5.9
2017-Jun-05 16:00N 47°51' W 122°38'4 7.6
2017-Jun-05 15:30N 47°48' W 122°42'1 2.9
2017-Jun-05 15:00N 47°47' W 122°43'3 2.6
2017-Jun-05 13:58N 47°45' W 122°45'  
Track history (hours):
 
Tides and Currents Weather Stations Pressure Air Temp Water Temp Dewpoint Dewpoint Depression Visibility Wind Speed Wind Dir Waves Ship Positions

Battle Point

Last reported at 2017-Jun-07 19:11 UTC. Time now 2017-Jun-23 12:10 UTC.
Position N 49°16' W 124°09'.
Warning: this ship's position is 15 days out of date.

Length 57 m; draft 3.2 m.

MMSI: 369970254.

Date/timePositionNaut miles runAvg speedWind from/ knotsBaromVisibWave heightAir tempDewpointWater temp
2017-Jun-07 19:11N 49°16' W 124°09'0 2.0
2017-Jun-07 18:59N 49°16' W 124°08'710.3
2017-Jun-07 18:19N 49°17' W 123°58'2 1.3
2017-Jun-07 16:55N 49°19' W 123°59'0 0.9
2017-Jun-07 16:27N 49°19' W 123°59'4 0.1
2017-Jun-06 03:32N 49°16' W 124°03'110.1
2017-Jun-06 03:29N 49°16' W 124°02'510.1
2017-Jun-06 03:00N 49°15' W 123°55'12 9.7
2017-Jun-06 01:47N 49°11' W 123°38'311.2
2017-Jun-06 01:30N 49°09' W 123°33'610.9
2017-Jun-06 01:00N 49°07' W 123°26'510.1
2017-Jun-06 00:29N 49°04' W 123°20'510.0
2017-Jun-06 00:00N 49°01' W 123°14'5 9.7
2017-Jun-05 23:30N 48°57' W 123°08'5 9.9
2017-Jun-05 23:00N 48°54' W 123°03'510.4
2017-Jun-05 22:29N 48°51' W 122°57'510.7
2017-Jun-05 22:00N 48°47' W 122°51'510.6
2017-Jun-05 21:30N 48°44' W 122°45'611.1
2017-Jun-05 21:00N 48°38' W 122°44'612.4
2017-Jun-05 20:30N 48°32' W 122°45'611.8
2017-Jun-05 20:00N 48°26' W 122°44'510.7
2017-Jun-05 19:30N 48°21' W 122°45'510.4
2017-Jun-05 19:00N 48°16' W 122°47'4 8.3
2017-Jun-05 18:30N 48°12' W 122°47'6 9.6
2017-Jun-05 17:52N 48°08' W 122°40'610.2
2017-Jun-05 17:14N 48°01' W 122°38'410.3
2017-Jun-05 16:53N 47°58' W 122°38'410.5
2017-Jun-05 16:30N 47°54' W 122°36'3 5.9
2017-Jun-05 16:00N 47°51' W 122°38'4 7.6
2017-Jun-05 15:30N 47°48' W 122°42'1 2.9
2017-Jun-05 15:00N 47°47' W 122°43'3 2.6
2017-Jun-05 13:58N 47°45' W 122°45'  

Dump ship's entire track history